• Join FlightAware (Why Join?)
  • Login
  • US Flag 
12:41PM EDT


 

Airport Tracker/Info


-or-


 

Live Flight TrackerFlight Track Log ✈ WSG921 ✈ 21-Jul-2014 ✈ CYXL - CYQT

Flight Track Log - Related Links

Times and Time Zones

All times are in EDT time to prevent confusion due to time zone crossing. See the WSG921 flight status page for this flight to view local times or setup timezone preferences in your user account.

Time Position Orientation Groundspeed Altitude Reporting Facility
EDT Latitude Longitude Course Direction KTS MPH feet Rate Location/Type
09:46PM 50.1167 -91.8833 135° Southeast 130 150 2,400  Level Winnipeg Center
09:47PM 50.1667 -91.8500 23° Northeast 130 150 3,600 1,080 Climbing Winnipeg Center
09:48PM 50.2000 -91.8167 33° Northeast 180 207 4,600 1,200 Climbing Winnipeg Center
09:49PM 50.2500 -91.7500 40° Northeast 190 219 6,100 1,200 Climbing Winnipeg Center
09:50PM 50.2833 -91.7000 44° Northeast 190 219 7,100 960 Climbing Winnipeg Center
09:51PM 49.8544 -91.5034 139° Southeast  Level Estimated
09:51PM 50.3333 -91.7000 360° North 190 219 8,100  Level Winnipeg Center
09:52PM 49.8111 -91.4369 135° Southeast  Level Estimated
09:52PM 50.3833 -91.6667 23° Northeast 200 230 9,100  Level Winnipeg Center
09:53PM 50.4167 -91.6000 52° Northeast 220 253 10,100 1,020 Climbing Winnipeg Center
09:54PM 50.4333 -91.5000 75° East 220 253 11,200 900 Climbing Winnipeg Center
09:55PM 50.4333 -91.4167 90° East 230 265 11,900 900 Climbing Winnipeg Center
09:56PM 50.4000 -91.3167 118° Southeast 230 265 13,100 1,020 Climbing Winnipeg Center
09:57PM 50.3833 -91.2167 105° East 220 253 14,000 900 Climbing Winnipeg Center
09:58PM 50.3667 -91.1167 105° East 230 265 14,900 780 Climbing Winnipeg Center
09:59PM 50.3500 -91.0333 107° East 230 265 15,600 660 Climbing Winnipeg Center
10:00PM 50.3167 -90.9333 118° Southeast 240 276 16,300 600 Climbing Winnipeg Center
10:01PM 50.3000 -90.8333 105° East 240 276 16,800 300 Climbing Winnipeg Center
10:02PM 50.2667 -90.7500 122° Southeast 240 276 17,000 60 Climbing Winnipeg Center
10:03PM 50.2167 -90.6500 128° Southeast 260 299 17,000  Level Winnipeg Center
10:04PM 50.1833 -90.5667 122° Southeast 260 299 17,000 -60 Level Winnipeg Center
10:05PM 50.1667 -90.4500 103° East 250 288 16,900 -60 Descending Winnipeg Center
10:06PM 50.1333 -90.3500 117° Southeast 240 276 16,900  Level Winnipeg Center
10:07PM 50.1333 -90.2500 90° East 240 276 16,900  Level Winnipeg Center
10:08PM 50.1333 -90.1500 90° East 240 276 16,900  Level Winnipeg Center
10:09PM 50.1000 -90.0667 122° Southeast 240 276 16,900  Level Winnipeg Center
10:10PM 50.0500 -90.0000 139° Southeast 230 265 16,900  Level Winnipeg Center
10:11PM 49.9833 -89.9833 171° South 230 265 16,900  Level Winnipeg Center
10:12PM 49.9333 -89.9500 157° South 240 276 16,900  Level Winnipeg Center
10:13PM 49.8667 -89.9333 171° South 240 276 16,900  Level Winnipeg Center
10:14PM 49.7833 -89.8833 159° South 250 288 16,900  Level Winnipeg Center
10:15PM 49.7167 -89.8667 171° South 250 288 16,900  Level Winnipeg Center
10:16PM 49.6500 -89.8333 162° South 250 288 16,900  Level Winnipeg Center
10:17PM 49.5833 -89.8167 171° South 250 288 16,900  Level Winnipeg Center
10:18PM 49.5167 -89.7667 154° Southeast 250 288 17,000  Climbing Winnipeg Center
10:19PM 49.4667 -89.7500 168° South 250 288 17,000  Level Winnipeg Center
10:20PM 49.4000 -89.7333 171° South 250 288 17,000  Level Winnipeg Center
10:21PM 49.3333 -89.7000 162° South 250 288 17,000  Level Winnipeg Center
10:22PM 49.2500 -89.6833 173° South 250 288 17,000 -360 Level Winnipeg Center
10:23PM 49.1833 -89.6667 171° South 250 288 16,300 -1,140 Descending Winnipeg Center
10:24PM 49.1000 -89.6333 165° South 280 322 14,800 -1,500 Descending Winnipeg Center
10:25PM 49.0333 -89.6167 171° South 290 334 13,400 -1,380 Descending Winnipeg Center
10:26PM 48.9667 -89.5500 147° Southeast 280 322 12,100 -1,260 Descending Winnipeg Center
10:27PM 48.9000 -89.5000 154° Southeast 260 299 10,900 -1,200 Descending Winnipeg Center
10:28PM 48.8167 -89.4667 165° South 240 276 9,700 -1,200 Descending Winnipeg Center
10:29PM 48.7500 -89.4500 171° South 240 276 8,500 -1,200 Descending Winnipeg Center
10:30PM 48.7000 -89.4667 192° South 220 253 7,400 -1,080 Descending Winnipeg Center
10:31PM 48.6333 -89.4500 171° South 220 253 6,400 -1,080 Descending Winnipeg Center
10:32PM 48.5667 -89.4333 171° South 220 253 5,300 -1,080 Descending Winnipeg Center
10:33PM 48.5167 -89.4167 168° South 230 265 4,300 -1,080 Descending Winnipeg Center
10:34PM 48.4500 -89.4000 171° South 220 253 3,200 -1,020 Descending Winnipeg Center
10:35PM 48.4167 -89.3833 162° South 160 184 2,300 -780 Descending Winnipeg Center
10:36PM 48.3833 -89.3833 180° South 100 115 1,700 -600 Descending Winnipeg Center
10:37PM 48.3667 -89.3333 117° Southeast 120 138 1,100 -600 Descending Winnipeg Center
10:38PM 48.3667 -89.2833 90° East 100 115 600 -540 Descending Winnipeg Center